Latest Weather Observations for Tibooburra Airport

IDN60801

Issued at 10:02 pm EDT Saturday 25 February 2017 (issued every 30 minutes, with the page automatically refreshed every 10 minutes)

About weather observations | Map of weather stations | Latest weather observations for NSW | Other Formats
Station Details ID: 046126 Name: TIBOOBURRA AIRPORT Lat: -29.44 Lon: 142.06 Height: 176.4 m
Data from the previous 72 hours. | See also: Recent months at Tibooburra Airport
Date/Time
EDT
Temp
°C
App
Temp
°C
Dew
Point
°C
Rel
Hum
%
Delta-T
°C
Wind Press
QNH
hPa
Press
MSL
hPa
Rain since
9am
mm
Dir  Spd
km/h
Gust
km/h
Spd
kts
Gust
kts
25/10:00pm 27.1 21.9 -5.9 11 14.0 S 13 15 7 8 1014.9 1013.7 0.0
25/09:30pm 28.8 23.3 -5.8 10 14.9 S 15 19 8 10 1014.7 1013.5 0.0
25/09:00pm 29.4 23.5 -5.4 10 15.2 SSW 17 20 9 11 1014.4 1013.2 0.0
25/08:30pm 30.3 24.1 -4.7 10 15.6 S 19 24 10 13 1014.2 1013.0 0.0
25/08:00pm 31.3 24.6 -3.9 10 16.0 S 22 28 12 15 1014.0 1012.8 0.0
25/07:30pm 32.3 26.3 -3.2 10 16.4 S 19 32 10 17 1013.8 1012.6 0.0
25/07:00pm 32.6 25.7 -2.9 10 16.6 S 24 30 13 16 1013.8 1012.6 0.0
25/06:30pm 33.2 26.3 -2.5 10 16.8 S 24 33 13 18 1013.8 1012.6 0.0
25/06:00pm 33.1 26.6 -2.6 10 16.8 S 22 32 12 17 1013.9 1012.7 0.0
25/05:30pm 33.7 26.5 -2.1 10 17.1 S 26 35 14 19 1014.0 1012.8 0.0
25/05:00pm 33.9 26.7 -2.0 10 17.2 S 26 35 14 19 1014.1 1012.9 0.0
25/04:30pm 33.8 26.6 -2.0 10 17.1 S 26 39 14 21 1014.4 1013.2 0.0
25/04:08pm 34.5 27.0 -1.5 10 17.4 S 28 48 15 26 1014.6 1013.4 0.0
25/04:00pm 34.0 26.4 -1.9 10 17.2 S 28 37 15 20 1014.7 1013.5 0.0
25/03:30pm 34.1 26.2 -1.8 10 17.2 S 30 43 16 23 1014.9 1013.7 0.0
25/03:00pm 33.9 26.7 -2.0 10 17.2 S 26 39 14 21 1015.3 1014.1 0.0
25/02:30pm 33.6 26.5 -0.9 11 16.8 S 26 37 14 20 1015.8 1014.7 0.0
25/02:00pm 33.5 26.6 0.2 12 16.4 SSE 26 37 14 20 1016.3 1015.1 0.0
25/01:30pm 32.2 25.3 0.3 13 15.7 SSE 26 39 14 21 1016.7 1015.5 0.0
25/01:00pm 31.5 24.3 0.8 14 15.1 SSE 28 39 15 21 1017.0 1015.8 0.0
25/12:30pm 31.1 24.0 1.4 15 14.8 SSE 28 39 15 21 1017.3 1016.1 0.0
25/12:00pm 29.8 22.7 1.3 16 14.0 SSE 28 37 15 20 1017.8 1016.6 0.0
25/11:30am 29.5 22.5 1.9 17 13.7 SSE 28 39 15 21 1018.1 1016.9 0.0
25/11:00am 27.5 19.6 1.1 18 12.7 SSE 32 41 17 22 1018.3 1017.1 0.0
25/10:30am 26.8 19.3 1.3 19 12.3 SSE 30 39 16 21 1018.3 1017.1 0.0
25/10:00am 26.1 19.0 1.4 20 11.8 SSE 28 37 15 20 1018.4 1017.2 0.0
25/09:30am 25.3 18.3 2.1 22 11.2 SSE 28 35 15 19 1018.3 1017.1 0.0
25/09:00am 23.9 16.4 1.5 23 10.6 S 30 39 16 21 1018.1 1016.9 0.0
25/08:30am 23.5 16.8 1.2 23 10.5 S 26 35 14 19 1018.0 1016.8 0.0
25/08:00am 22.7 16.4 1.7 25 9.9 S 24 30 13 16 1017.7 1016.5 0.0
25/07:30am 22.4 16.6 2.5 27 9.5 S 22 32 12 17 1017.4 1016.2 0.0
25/07:00am 22.6 17.2 2.7 27 9.5 S 20 30 11 16 1017.2 1016.0 0.0
25/06:30am 22.9 17.1 2.4 26 9.8 S 22 32 12 17 1017.2 1016.0 0.0
25/06:00am 23.3 17.6 2.7 26 9.9 S 22 33 12 18 1017.0 1015.8 0.0
25/05:30am 23.4 17.7 2.8 26 10.0 S 22 32 12 17 1017.0 1015.8 0.0
25/05:00am 23.7 17.9 2.5 25 10.2 S 22 30 12 16 1016.8 1015.6 0.0
25/04:30am 24.0 18.7 2.8 25 10.3 S 20 28 11 15 1016.7 1015.5 0.0
25/04:00am 24.4 18.4 3.1 25 10.4 S 24 35 13 19 1016.4 1015.2 0.0
25/03:30am 24.8 18.7 2.9 24 10.7 S 24 32 13 17 1016.5 1015.3 0.0
25/03:00am 25.1 19.1 3.1 24 10.8 S 24 32 13 17 1016.6 1015.4 0.0
25/02:30am 25.5 19.5 3.5 24 10.9 S 24 32 13 17 1016.6 1015.4 0.0
25/02:00am 26.1 19.8 4.0 24 11.1 S 26 35 14 19 1016.8 1015.6 0.0
25/01:30am 26.6 20.4 4.4 24 11.3 S 26 35 14 19 1017.1 1015.9 0.0
25/01:00am 26.9 21.4 4.0 23 11.6 S 22 33 12 18 1017.3 1016.1 0.0
25/12:30am 27.2 21.6 3.7 22 11.8 S 22 32 12 17 1017.4 1016.2 0.0
25/12:00am 28.0 21.7 3.7 21 12.3 S 26 33 14 18 1017.5 1016.3 0.0
 
Date/Time
EDT
Temp
°C
App
Temp
°C
Dew
Point
°C
Rel
Hum
%
Delta-T
°C
Wind Press
QNH
hPa
Press
MSL
hPa
Rain since
9am
mm
Dir  Spd
km/h
Gust
km/h
Spd
kts
Gust
kts
24/11:30pm 28.5 21.8 3.4 20 12.7 S 28 39 15 21 1017.5 1016.3 0.0
24/11:00pm 29.3 22.3 4.0 20 13.0 S 30 39 16 21 1017.5 1016.3 0.0
24/10:30pm 30.0 23.7 3.9 19 13.4 S 26 39 14 21 1017.5 1016.3 0.0
24/10:00pm 30.8 24.5 3.8 18 13.9 S 26 37 14 20 1017.3 1016.1 0.0
24/09:30pm 31.1 26.0 3.2 17 14.3 SSW 19 24 10 13 1017.0 1015.8 0.0
24/09:00pm 32.0 26.5 2.1 15 15.1 SSW 20 26 11 14 1016.7 1015.5 0.0
24/08:30pm 32.9 26.7 1.9 14 15.7 S 24 30 13 16 1016.4 1015.2 0.0
24/08:00pm 33.7 27.2 2.5 14 16.0 S 26 32 14 17 1016.3 1015.1 0.0
24/07:30pm 34.7 28.1 2.3 13 16.7 S 26 33 14 18 1016.0 1014.9 0.0
24/07:00pm 35.6 29.3 1.8 12 17.4 S 24 33 13 18 1015.8 1014.7 0.0
24/06:30pm 35.9 29.7 2.1 12 17.5 S 24 32 13 17 1015.7 1014.6 0.0
24/06:00pm 35.8 29.6 2.0 12 17.4 SSE 24 41 13 22 1015.8 1014.7 0.0
24/05:30pm 36.2 29.1 1.1 11 17.9 S 28 33 15 18 1016.0 1014.9 0.0
24/05:00pm 36.0 29.2 0.9 11 17.8 S 26 37 14 20 1016.1 1015.0 0.0
24/04:30pm 36.7 29.6 1.5 11 18.1 SSW 28 41 15 22 1016.4 1015.2 0.0
24/04:00pm 36.5 29.0 1.3 11 18.0 S 30 44 16 24 1016.6 1015.4 0.0
24/03:30pm 36.3 29.8 2.4 12 17.7 S 26 41 14 22 1016.9 1015.7 0.0
24/03:00pm 35.9 28.2 2.1 12 17.5 S 32 41 17 22 1017.3 1016.1 0.0
24/02:30pm 35.8 28.8 2.0 12 17.5 S 28 41 15 22 1017.8 1016.6 0.0
24/02:00pm 35.4 28.4 3.9 14 16.7 S 30 39 16 21 1018.0 1016.8 0.0
24/01:30pm 34.5 27.3 5.0 16 15.9 SSE 32 44 17 24 1018.4 1017.2 0.0
24/01:00pm 33.4 26.6 5.0 17 15.1 SSE 30 43 16 23 1018.8 1017.6 0.0
24/12:30pm 32.1 24.7 4.8 18 14.4 SSE 33 46 18 25 1019.4 1018.2 0.0
24/12:00pm 31.5 24.3 5.1 19 14.0 SSE 32 43 17 23 1019.7 1018.5 0.0
24/11:30am 30.6 23.6 5.8 21 13.2 SSE 32 46 17 25 1020.0 1018.8 0.0
24/11:00am 29.7 22.5 5.7 22 12.7 SSE 33 43 18 23 1020.1 1018.9 0.0
24/10:30am 28.8 21.5 5.6 23 12.2 SSE 33 43 18 23 1020.1 1018.9 0.0
24/10:00am 28.2 21.0 5.7 24 11.8 SSE 33 46 18 25 1019.9 1018.7 0.0
24/09:30am 27.1 19.5 6.0 26 11.1 SSE 35 44 19 24 1019.8 1018.6 0.0
24/09:00am 26.0 18.9 5.6 27 10.5 SSE 32 43 17 23 1019.7 1018.5 0.0
24/08:30am 25.4 18.7 5.6 28 10.2 SSE 30 39 16 21 1019.2 1018.0 0.0
24/08:00am 24.6 19.4 5.4 29 9.8 SSE 22 30 12 16 1019.0 1017.8 0.0
24/07:30am 24.2 18.9 5.1 29 9.7 SSE 22 33 12 18 1018.7 1017.5 0.0
24/07:00am 24.4 19.1 5.2 29 9.7 SSE 22 30 12 16 1018.4 1017.2 0.0
24/06:30am 24.7 19.4 5.0 28 10.0 SSE 22 30 12 16 1018.1 1016.9 0.0
24/06:00am 24.9 19.6 5.2 28 10.0 SSE 22 30 12 16 1017.5 1016.3 0.0
24/05:30am 25.2 20.5 5.9 29 10.0 SSE 20 30 11 16 1017.3 1016.1 0.0
24/05:00am 25.6 20.5 5.8 28 10.2 SSE 22 30 12 16 1017.1 1015.9 0.0
24/04:30am 26.0 20.8 5.6 27 10.6 SSE 22 32 12 17 1017.0 1015.8 0.0
24/04:00am 26.6 20.2 5.0 25 11.1 SSE 28 35 15 19 1016.8 1015.6 0.0
24/03:30am 27.2 21.1 4.9 24 11.5 SSE 26 33 14 18 1016.7 1015.5 0.0
24/03:00am 27.7 22.0 4.7 23 11.8 S 24 35 13 19 1016.9 1015.7 0.0
24/02:30am 28.1 21.9 4.4 22 12.2 S 26 33 14 18 1016.9 1015.7 0.0
24/02:00am 28.5 22.6 4.1 21 12.5 S 24 32 13 17 1017.1 1015.9 0.0
24/01:30am 29.2 23.6 3.2 19 13.2 S 22 30 12 16 1017.3 1016.1 0.0
24/01:00am 29.8 24.1 2.9 18 13.6 S 22 30 12 16 1017.3 1016.1 0.0
24/12:30am 30.2 24.4 2.5 17 13.9 S 22 30 12 16 1017.3 1016.1 0.0
24/12:00am 30.3 24.6 0.8 15 14.4 S 20 24 11 13 1017.3 1016.1 0.0
 
Date/Time
EDT
Temp
°C
App
Temp
°C
Dew
Point
°C
Rel
Hum
%
Delta-T
°C
Wind Press
QNH
hPa
Press
MSL
hPa
Rain since
9am
mm
Dir  Spd
km/h
Gust
km/h
Spd
kts
Gust
kts
23/11:30pm 31.0 25.3 0.4 14 14.9 S 20 28 11 15 1017.2 1016.0 0.0
23/11:00pm 31.6 25.3 -1.2 12 15.6 SSW 22 30 12 16 1016.8 1015.6 0.0
23/10:30pm 32.1 25.9 -3.3 10 16.4 SSW 20 28 11 15 1016.7 1015.5 0.0
23/10:00pm 32.6 26.3 -4.3 9 16.8 SSW 20 26 11 14 1016.5 1015.3 0.0
23/09:30pm 33.2 27.1 -3.9 9 17.1 SSW 19 24 10 13 1016.3 1015.1 0.0
23/09:00pm 33.8 27.6 -5.0 8 17.6 SSW 19 22 10 12 1015.9 1014.8 0.0
23/08:30pm 34.8 28.3 -6.0 7 18.4 SSW 20 26 11 14 1015.6 1014.5 0.0
23/08:00pm 36.1 29.5 -7.1 6 19.3 S 20 28 11 15 1015.3 1014.1 0.0
23/07:30pm 37.2 30.3 -6.3 6 19.9 S 22 32 12 17 1015.0 1013.8 0.0
23/07:00pm 37.8 31.1 -8.3 5 20.5 S 20 30 11 16 1014.9 1013.7 0.0
23/06:30pm 38.1 31.4 -8.1 5 20.7 SSW 20 30 11 16 1014.6 1013.4 0.0
23/06:00pm 38.7 31.3 -7.6 5 21.0 SSW 24 37 13 20 1014.5 1013.3 0.0
23/05:30pm 38.7 32.0 -7.6 5 21.0 SW 20 35 11 19 1014.4 1013.2 0.0
23/05:00pm 39.1 32.5 -7.4 5 21.2 S 20 28 11 15 1014.5 1013.3 0.0
23/04:30pm 38.8 32.4 -5.2 6 20.7 SSW 20 28 11 15 1014.6 1013.4 0.0
23/04:00pm 38.9 33.8 -5.1 6 20.7 SSE 13 24 7 13 1014.8 1013.6 0.0
23/03:30pm 38.6 33.7 -3.3 7 20.3 S 13 20 7 11 1015.1 1013.9 0.0
23/03:00pm 38.0 33.1 -3.7 7 19.9 SSE 13 20 7 11 1015.3 1014.1 0.0
23/02:30pm 38.2 31.9 -3.6 7 20.1 S 20 28 11 15 1015.5 1014.4 0.0
23/02:00pm 37.0 30.5 -2.7 8 19.2 S 22 30 12 16 1015.7 1014.6 0.0
23/01:30pm 35.5 29.0 -2.2 9 18.2 S 22 35 12 19 1015.7 1014.6 0.0
23/01:00pm 35.6 29.7 -0.7 10 17.9 S 20 32 11 17 1016.0 1014.9 0.0
23/12:30pm 34.4 28.0 -1.6 10 17.4 SSE 22 28 12 15 1016.3 1015.1 0.0
23/12:00pm 33.7 28.0 0.4 12 16.5 S 20 28 11 15 1016.5 1015.3 0.0
23/11:30am 32.6 26.7 1.7 14 15.6 S 22 30 12 16 1016.6 1015.4 0.0
23/11:00am 30.9 24.6 1.3 15 14.6 S 24 32 13 17 1016.7 1015.5 0.0
23/10:30am 29.4 23.1 1.8 17 13.6 SSE 24 33 13 18 1016.8 1015.6 0.0
23/10:00am 28.8 22.3 0.5 16 13.6 SSE 24 30 13 16 1016.7 1015.5 0.0
23/09:30am 27.7 21.6 -2.2 14 13.6 SSE 20 26 11 14 1016.3 1015.1 0.0
23/09:00am 26.1 19.5 -3.5 14 13.0 SSW 22 30 12 16 1015.7 1014.6 0.0
23/08:30am 24.5 18.4 -3.8 15 12.2 SSW 19 28 10 15 1015.5 1014.4 0.0
23/08:00am 23.9 17.8 -7.2 12 12.5 SW 17 19 9 10 1015.0 1013.8 0.0
23/07:30am 24.2 19.6 -8.1 11 12.8 WSW 9 11 5 6 1014.2 1013.0 0.0
23/07:00am 24.2 20.2 -8.1 11 12.8 SW 6 9 3 5 1013.8 1012.6 0.0
23/06:30am 24.8 20.8 -7.6 11 13.0 SW 6 9 3 5 1013.4 1012.2 0.0
23/06:00am 25.0 20.8 -7.5 11 13.1 SSW 7 9 4 5 1013.2 1012.0 0.0
23/05:30am 24.5 20.3 -7.9 11 12.9 SW 7 9 4 5 1012.9 1011.7 0.0
23/05:00am 23.8 19.5 -8.4 11 12.6 SW 7 9 4 5 1012.9 1011.7 0.0
23/04:30am 24.3 20.1 -8.0 11 12.8 WSW 7 9 4 5 1012.9 1011.7 0.0
23/04:00am 25.9 21.2 -9.4 9 13.9 SW 9 9 5 5 1012.8 1011.6 0.0
23/03:30am 26.3 21.6 -9.1 9 14.0 SW 9 9 5 5 1012.8 1011.6 0.0
23/03:00am 25.3 20.3 -8.5 10 13.4 WSW 11 13 6 7 1012.9 1011.7 0.0
23/02:30am 25.7 20.6 -9.5 9 13.8 WSW 11 20 6 11 1013.2 1012.0 0.0
23/02:00am 27.0 22.9 -8.5 9 14.3 SW 6 7 3 4 1013.2 1012.0 0.0
23/01:30am 26.7 22.6 -8.8 9 14.2 SW 6 7 3 4 1013.4 1012.2 0.0
23/01:00am 26.8 22.1 -8.7 9 14.3 SW 9 11 5 6 1013.6 1012.4 0.0
23/12:30am 27.3 24.0 -8.3 9 14.5 S 2 9 1 5 1013.6 1012.4 0.0
23/12:00am 28.6 23.9 -8.8 8 15.3 W 9 9 5 5 1013.5 1012.3 0.0
 
Date/Time
EDT
Temp
°C
App
Temp
°C
Dew
Point
°C
Rel
Hum
%
Delta-T
°C
Wind Press
QNH
hPa
Press
MSL
hPa
Rain since
9am
mm
Dir  Spd
km/h
Gust
km/h
Spd
kts
Gust
kts
22/11:30pm 29.5 25.3 -8.2 8 15.7 WSW 7 7 4 4 1013.4 1012.2 0.0
22/11:00pm 29.8 25.6 -8.0 8 15.8 W 7 9 4 5 1013.3 1012.1 0.0
22/10:30pm 29.4 24.4 -8.2 8 15.6 SSW 11 15 6 8 1013.2 1012.0 0.0

Other Formats:

Comma delimited format used in spreadsheet applications
http://www.bom.gov.au/fwo/IDN60801/IDN60801.95485.axf

JavaScript Object Notation format (JSON) in row-major order
http://www.bom.gov.au/fwo/IDN60801/IDN60801.95485.json